Time;durP1;ratioP1;P1;durP2;ratioP2;P2;SDS_P1;SDS_P2;PMS_P1;PMS_P2;Temp;Humidity;BMP_temperature;BMP_pressure;BME280_temperature;BME280_humidity;BME280_pressure;Samples;Min_cycle;Max_cycle;Signal;HPM_P1;HPM_P2
2023/05/29 00:00:23;;;;;;;16.73;3.50;;;;;;;;;;5067738;28;20052;-71
2023/05/29 00:02:50;;;;;;;17.88;3.40;;;;;;;;;;5055794;28;20528;-72
2023/05/29 00:05:17;;;;;;;19.13;3.75;;;;;;;;;;5057120;28;20048;-71
2023/05/29 00:07:43;;;;;;;13.18;3.22;;;;;;;;;;5055104;28;20044;-71
2023/05/29 00:10:09;;;;;;;15.70;3.58;;;;;;;;;;5073708;28;20044;-71
2023/05/29 00:12:36;;;;;;;15.65;3.38;;;;;;;;;;5054927;28;20051;-71
2023/05/29 00:15:06;;;;;;;15.35;3.55;;;;;;;;;;5056392;28;20036;-71
2023/05/29 00:17:32;;;;;;;19.65;3.80;;;;;;;;;;5044569;28;20053;-71
2023/05/29 00:19:59;;;;;;;16.00;3.50;;;;;;;;;;5035699;28;20125;-71
2023/05/29 00:22:28;;;;;;;14.32;3.60;;;;;;;;;;5035575;28;20045;-71
2023/05/29 00:24:54;;;;;;;19.77;3.85;;;;;;;;;;5017669;28;20095;-71
2023/05/29 00:27:20;;;;;;;16.35;3.90;;;;;;;;;;5028502;28;20051;-71
2023/05/29 00:29:46;;;;;;;16.30;3.47;;;;;;;;;;5034911;28;20048;-72
2023/05/29 00:32:12;;;;;;;13.70;3.10;;;;;;;;;;5043576;28;20095;-71
2023/05/29 00:34:38;;;;;;;14.15;3.28;;;;;;;;;;5036789;28;20041;-71
2023/05/29 00:37:05;;;;;;;17.85;3.50;;;;;;;;;;5053665;28;20119;-71
2023/05/29 00:39:31;;;;;;;17.48;4.00;;;;;;;;;;5019728;28;20060;-71
2023/05/29 00:41:57;;;;;;;17.38;4.00;;;;;;;;;;5035420;28;20037;-71
2023/05/29 00:44:23;;;;;;;16.50;3.45;;;;;;;;;;5036670;28;20087;-71
2023/05/29 00:46:50;;;;;;;18.02;4.03;;;;;;;;;;5045113;28;20087;-71
2023/05/29 00:49:16;;;;;;;17.85;3.70;;;;;;;;;;5038587;28;20036;-71
2023/05/29 00:51:43;;;;;;;14.68;3.60;;;;;;;;;;5051790;28;20049;-71
2023/05/29 00:54:12;;;;;;;16.95;3.83;;;;;;;;;;5051639;28;20051;-71
2023/05/29 00:56:39;;;;;;;21.38;4.20;;;;;;;;;;5056083;28;20103;-71
2023/05/29 00:59:06;;;;;;;15.25;3.22;;;;;;;;;;5074520;28;20086;-72
2023/05/29 01:01:33;;;;;;;16.77;3.33;;;;;;;;;;5074397;28;20052;-71
2023/05/29 01:04:00;;;;;;;16.13;3.70;;;;;;;;;;5056450;28;20040;-72
2023/05/29 01:06:26;;;;;;;13.05;3.40;;;;;;;;;;5074485;28;20109;-72
2023/05/29 01:08:52;;;;;;;12.65;3.33;;;;;;;;;;5073900;28;20090;-72
2023/05/29 01:11:37;;;;;;;18.17;3.78;;;;;;;;;;5073800;28;20114;-72
2023/05/29 01:14:07;;;;;;;18.65;3.30;;;;;;;;;;5016405;28;20045;-72
2023/05/29 01:16:38;;;;;;;17.13;3.85;;;;;;;;;;5034448;28;20508;-72
2023/05/29 01:19:27;;;;;;;15.68;3.90;;;;;;;;;;5016601;28;20076;-72
2023/05/29 01:22:06;;;;;;;18.60;3.90;;;;;;;;;;5033025;28;20405;-72
2023/05/29 01:24:48;;;;;;;17.42;3.42;;;;;;;;;;5026720;28;20045;-72
2023/05/29 01:27:16;;;;;;;16.77;3.63;;;;;;;;;;5037586;28;20053;-72
2023/05/29 01:29:43;;;;;;;13.48;3.92;;;;;;;;;;5034470;28;20132;-72
2023/05/29 01:32:09;;;;;;;18.00;3.83;;;;;;;;;;5049748;28;20076;-72
2023/05/29 01:34:35;;;;;;;21.38;3.75;;;;;;;;;;5034225;28;20038;-71
2023/05/29 01:37:01;;;;;;;18.08;3.83;;;;;;;;;;5034366;28;20037;-71
2023/05/29 01:39:28;;;;;;;21.33;4.13;;;;;;;;;;5033790;28;20052;-71
2023/05/29 01:41:55;;;;;;;17.08;3.78;;;;;;;;;;5041836;28;20106;-71
2023/05/29 01:44:21;;;;;;;18.33;3.70;;;;;;;;;;5039864;28;20406;-71
2023/05/29 01:46:48;;;;;;;15.75;3.95;;;;;;;;;;5052112;28;20040;-71
2023/05/29 01:49:14;;;;;;;18.75;3.95;;;;;;;;;;5017193;28;20396;-71
2023/05/29 01:51:40;;;;;;;21.38;3.95;;;;;;;;;;5036169;28;20116;-71
2023/05/29 01:54:06;;;;;;;18.65;4.03;;;;;;;;;;5053567;28;20049;-71
2023/05/29 01:56:33;;;;;;;16.13;4.00;;;;;;;;;;5053011;28;20378;-71
2023/05/29 01:59:01;;;;;;;18.58;3.97;;;;;;;;;;5033657;28;20051;-71
2023/05/29 02:01:27;;;;;;;16.38;3.72;;;;;;;;;;5033603;28;20056;-71
2023/05/29 02:03:53;;;;;;;23.42;4.28;;;;;;;;;;5033408;28;20049;-71
2023/05/29 02:06:19;;;;;;;19.73;3.85;;;;;;;;;;5051305;28;20060;-71
2023/05/29 02:08:46;;;;;;;21.48;3.80;;;;;;;;;;5072952;28;20049;-71
2023/05/29 02:11:12;;;;;;;18.38;3.72;;;;;;;;;;5067807;28;20036;-71
2023/05/29 02:13:38;;;;;;;13.38;3.53;;;;;;;;;;5054553;28;20048;-71
2023/05/29 02:16:04;;;;;;;20.02;3.72;;;;;;;;;;5065601;28;20045;-71
2023/05/29 02:18:31;;;;;;;18.15;4.10;;;;;;;;;;5048055;28;20481;-71
2023/05/29 02:20:57;;;;;;;16.48;3.80;;;;;;;;;;5053130;28;20099;-71
2023/05/29 02:23:23;;;;;;;24.17;3.78;;;;;;;;;;5072753;28;20310;-71
2023/05/29 02:25:49;;;;;;;16.40;3.90;;;;;;;;;;5020786;28;20395;-71
2023/05/29 02:28:15;;;;;;;20.38;4.30;;;;;;;;;;5055118;28;20037;-71
2023/05/29 02:30:41;;;;;;;16.23;3.65;;;;;;;;;;5055358;28;20103;-71
2023/05/29 02:33:08;;;;;;;19.73;3.67;;;;;;;;;;5058073;28;20043;-71
2023/05/29 02:35:34;;;;;;;18.52;4.10;;;;;;;;;;5061831;28;20049;-71
2023/05/29 02:38:00;;;;;;;18.00;3.83;;;;;;;;;;5071908;28;20047;-71
2023/05/29 02:40:26;;;;;;;18.85;3.90;;;;;;;;;;5055691;28;20709;-71
2023/05/29 02:42:53;;;;;;;16.98;3.50;;;;;;;;;;5049255;28;20040;-71
2023/05/29 02:45:19;;;;;;;14.27;3.63;;;;;;;;;;5047818;28;20052;-71
2023/05/29 02:47:45;;;;;;;18.42;3.63;;;;;;;;;;5058601;28;20044;-71
2023/05/29 02:50:14;;;;;;;14.38;3.45;;;;;;;;;;5044797;28;20080;-72
2023/05/29 02:52:40;;;;;;;18.63;4.00;;;;;;;;;;5085602;28;20044;-71
2023/05/29 02:55:07;;;;;;;16.67;3.50;;;;;;;;;;5068378;28;20115;-71
2023/05/29 02:57:33;;;;;;;17.85;3.65;;;;;;;;;;5052544;28;20143;-71
2023/05/29 03:00:00;;;;;;;19.58;3.67;;;;;;;;;;5034527;28;20081;-71
2023/05/29 03:02:26;;;;;;;15.27;3.33;;;;;;;;;;5052570;28;20170;-71
2023/05/29 03:04:53;;;;;;;16.33;3.22;;;;;;;;;;5068180;28;20374;-71
2023/05/29 03:07:19;;;;;;;16.88;3.70;;;;;;;;;;5072272;28;20075;-72
2023/05/29 03:09:45;;;;;;;16.25;3.78;;;;;;;;;;5071637;28;20041;-71
2023/05/29 03:12:11;;;;;;;14.00;3.22;;;;;;;;;;5052698;28;20499;-71
2023/05/29 03:14:37;;;;;;;16.35;3.88;;;;;;;;;;5072329;28;20045;-71
2023/05/29 03:17:07;;;;;;;18.75;3.65;;;;;;;;;;5048844;28;20037;-71
2023/05/29 03:19:33;;;;;;;16.75;3.40;;;;;;;;;;5052184;28;20100;-72
2023/05/29 03:21:59;;;;;;;16.83;3.55;;;;;;;;;;5034459;28;20042;-71
2023/05/29 03:24:25;;;;;;;16.75;3.83;;;;;;;;;;5047575;28;20356;-71
2023/05/29 03:26:51;;;;;;;12.80;3.45;;;;;;;;;;5047748;28;20052;-71
2023/05/29 03:29:18;;;;;;;15.32;3.88;;;;;;;;;;5054082;28;20049;-71
2023/05/29 03:31:44;;;;;;;12.55;3.60;;;;;;;;;;5047619;28;20494;-71
2023/05/29 03:34:10;;;;;;;17.95;3.80;;;;;;;;;;5070373;28;20040;-72
2023/05/29 03:36:36;;;;;;;13.63;3.28;;;;;;;;;;5065901;28;20074;-71
2023/05/29 03:39:03;;;;;;;20.80;4.05;;;;;;;;;;5050347;28;20489;-71
2023/05/29 03:41:29;;;;;;;14.75;3.50;;;;;;;;;;5037640;28;20067;-71
2023/05/29 03:43:55;;;;;;;18.65;3.92;;;;;;;;;;5049575;28;20041;-71
2023/05/29 03:46:21;;;;;;;18.60;3.50;;;;;;;;;;5062799;28;20132;-71
2023/05/29 03:48:47;;;;;;;20.17;3.65;;;;;;;;;;5074787;28;20131;-71
2023/05/29 03:51:13;;;;;;;13.52;3.33;;;;;;;;;;5069751;28;20127;-71
2023/05/29 03:53:39;;;;;;;15.35;3.40;;;;;;;;;;5055632;28;20561;-71
2023/05/29 03:56:05;;;;;;;17.80;3.53;;;;;;;;;;5057181;28;20131;-71
2023/05/29 03:58:31;;;;;;;15.60;3.13;;;;;;;;;;5055538;28;20076;-71
2023/05/29 04:00:57;;;;;;;15.60;3.13;;;;;;;;;;5068790;28;20060;-71
2023/05/29 04:03:23;;;;;;;16.73;3.50;;;;;;;;;;5057373;28;20045;-71
2023/05/29 04:05:49;;;;;;;17.63;3.10;;;;;;;;;;5027021;28;20412;-71
2023/05/29 04:08:15;;;;;;;13.70;3.00;;;;;;;;;;5072421;28;20059;-71
2023/05/29 04:10:41;;;;;;;14.07;3.42;;;;;;;;;;5073492;28;20400;-71
2023/05/29 04:13:07;;;;;;;15.63;3.38;;;;;;;;;;5057541;28;20091;-71
2023/05/29 04:15:34;;;;;;;16.60;3.45;;;;;;;;;;5075135;28;20411;-71
2023/05/29 04:18:00;;;;;;;12.77;3.30;;;;;;;;;;5045863;28;20505;-71
2023/05/29 04:20:26;;;;;;;16.58;3.53;;;;;;;;;;5001443;28;20049;-71
2023/05/29 04:22:52;;;;;;;16.17;3.50;;;;;;;;;;5040143;28;20504;-71
2023/05/29 04:25:19;;;;;;;14.88;3.63;;;;;;;;;;5056420;28;20059;-71
2023/05/29 04:27:48;;;;;;;15.63;4.10;;;;;;;;;;5057877;28;20132;-71
2023/05/29 04:30:14;;;;;;;17.83;3.85;;;;;;;;;;5056158;28;20075;-71
2023/05/29 04:32:40;;;;;;;13.93;3.35;;;;;;;;;;5055172;28;20049;-71
2023/05/29 04:35:07;;;;;;;14.65;3.42;;;;;;;;;;5055366;28;20048;-72
2023/05/29 04:37:37;;;;;;;14.02;3.30;;;;;;;;;;5069885;28;20045;-71
2023/05/29 04:40:10;;;;;;;15.90;3.45;;;;;;;;;;5029424;28;20397;-72
2023/05/29 04:42:36;;;;;;;12.25;2.90;;;;;;;;;;5066330;28;20112;-70
2023/05/29 04:45:04;;;;;;;17.33;3.40;;;;;;;;;;5055776;28;20041;-71
2023/05/29 04:47:32;;;;;;;11.90;3.15;;;;;;;;;;5061155;28;20049;-71
2023/05/29 04:49:59;;;;;;;13.38;3.60;;;;;;;;;;5054690;28;20075;-72
2023/05/29 04:52:25;;;;;;;15.93;3.65;;;;;;;;;;5070522;28;20041;-71
2023/05/29 04:54:52;;;;;;;15.13;3.40;;;;;;;;;;5074589;28;20048;-72
2023/05/29 04:57:18;;;;;;;15.25;3.55;;;;;;;;;;5064143;28;20041;-72
2023/05/29 04:59:44;;;;;;;21.63;3.97;;;;;;;;;;5054498;28;20049;-71
2023/05/29 05:02:10;;;;;;;15.77;3.42;;;;;;;;;;5053427;28;20041;-71
2023/05/29 05:04:36;;;;;;;18.58;4.32;;;;;;;;;;5053453;28;20045;-71
2023/05/29 05:07:03;;;;;;;15.45;3.70;;;;;;;;;;5053039;28;20107;-72
2023/05/29 05:09:29;;;;;;;14.35;3.60;;;;;;;;;;5056354;28;20555;-72
2023/05/29 05:11:55;;;;;;;16.70;3.70;;;;;;;;;;5056425;28;20040;-72
2023/05/29 05:14:21;;;;;;;19.88;3.97;;;;;;;;;;5056431;28;20036;-71
2023/05/29 05:16:47;;;;;;;15.65;3.90;;;;;;;;;;5036893;28;20040;-72
2023/05/29 05:19:13;;;;;;;18.77;3.85;;;;;;;;;;5016624;28;20406;-72
2023/05/29 05:21:39;;;;;;;16.58;4.00;;;;;;;;;;5034285;28;20124;-72
2023/05/29 05:24:06;;;;;;;18.20;3.70;;;;;;;;;;5034253;28;20037;-72
2023/05/29 05:26:32;;;;;;;16.75;3.47;;;;;;;;;;5058562;28;20090;-71
2023/05/29 05:28:58;;;;;;;18.25;3.72;;;;;;;;;;5073691;28;20076;-71
2023/05/29 05:31:25;;;;;;;13.98;3.97;;;;;;;;;;5059279;28;20045;-71
2023/05/29 05:33:51;;;;;;;18.63;3.92;;;;;;;;;;5067472;28;20052;-71
2023/05/29 05:36:17;;;;;;;18.48;3.95;;;;;;;;;;5057308;28;20056;-72
2023/05/29 05:38:43;;;;;;;24.10;4.65;;;;;;;;;;5061457;28;20186;-72
2023/05/29 05:41:10;;;;;;;16.88;3.88;;;;;;;;;;5042075;28;20049;-73
2023/05/29 05:43:36;;;;;;;18.30;4.13;;;;;;;;;;5073676;28;20095;-72
2023/05/29 05:46:02;;;;;;;17.52;3.63;;;;;;;;;;5064369;28;20099;-72
2023/05/29 05:48:28;;;;;;;15.82;3.85;;;;;;;;;;5053626;28;20041;-72
2023/05/29 05:50:54;;;;;;;22.83;4.40;;;;;;;;;;5052758;28;20107;-72
2023/05/29 05:53:21;;;;;;;17.92;4.30;;;;;;;;;;5053225;28;20048;-72
2023/05/29 05:55:47;;;;;;;20.83;4.20;;;;;;;;;;5052445;28;20041;-72
2023/05/29 05:58:13;;;;;;;16.95;4.05;;;;;;;;;;5055318;28;20055;-72
2023/05/29 06:00:40;;;;;;;22.92;4.95;;;;;;;;;;5055705;28;20047;-72
2023/05/29 06:03:06;;;;;;;16.13;4.10;;;;;;;;;;5073691;28;20048;-72
2023/05/29 06:05:34;;;;;;;18.05;4.78;;;;;;;;;;5055423;28;20140;-72
2023/05/29 06:08:00;;;;;;;20.23;4.18;;;;;;;;;;5053525;28;20061;-72
2023/05/29 06:10:26;;;;;;;18.80;4.25;;;;;;;;;;5055572;28;20382;-72
2023/05/29 06:12:52;;;;;;;14.90;4.15;;;;;;;;;;5054943;28;20036;-72
2023/05/29 06:15:18;;;;;;;15.65;4.05;;;;;;;;;;5073233;28;20040;-72
2023/05/29 06:17:44;;;;;;;18.55;3.80;;;;;;;;;;5063734;28;20045;-72
2023/05/29 06:20:11;;;;;;;19.85;4.50;;;;;;;;;;5035238;28;20072;-72
2023/05/29 06:22:40;;;;;;;21.13;4.32;;;;;;;;;;5054466;28;20045;-72
2023/05/29 06:25:06;;;;;;;17.27;3.75;;;;;;;;;;5046328;28;20071;-72
2023/05/29 06:27:32;;;;;;;20.00;3.90;;;;;;;;;;5052631;28;20087;-71
2023/05/29 06:29:58;;;;;;;24.15;4.88;;;;;;;;;;5052857;28;20049;-72
2023/05/29 06:32:24;;;;;;;19.02;4.13;;;;;;;;;;5051878;28;20049;-72
2023/05/29 06:34:50;;;;;;;20.25;4.03;;;;;;;;;;5050474;28;20041;-72
2023/05/29 06:37:16;;;;;;;19.50;3.88;;;;;;;;;;5035758;28;20060;-72
2023/05/29 06:39:46;;;;;;;20.38;4.22;;;;;;;;;;5052622;28;20048;-72
2023/05/29 06:42:12;;;;;;;20.50;4.32;;;;;;;;;;5068341;28;20375;-71
2023/05/29 06:44:38;;;;;;;20.25;4.43;;;;;;;;;;5052896;28;20461;-72
2023/05/29 06:47:06;;;;;;;17.38;4.30;;;;;;;;;;5067808;28;20040;-72
2023/05/29 06:49:32;;;;;;;23.70;4.40;;;;;;;;;;5059412;28;20087;-72
2023/05/29 06:51:59;;;;;;;20.00;3.80;;;;;;;;;;5052498;28;20482;-72
2023/05/29 06:54:25;;;;;;;19.95;4.90;;;;;;;;;;5034886;28;20041;-72
2023/05/29 06:56:52;;;;;;;20.40;4.28;;;;;;;;;;5052759;28;20140;-71
2023/05/29 06:59:18;;;;;;;18.52;4.20;;;;;;;;;;5052063;28;20041;-72
2023/05/29 07:01:44;;;;;;;21.38;4.82;;;;;;;;;;5050616;28;20053;-72
2023/05/29 07:04:11;;;;;;;14.80;4.03;;;;;;;;;;5051834;28;20116;-72
2023/05/29 07:06:38;;;;;;;18.80;3.95;;;;;;;;;;5052345;28;20128;-71
2023/05/29 07:09:04;;;;;;;14.52;3.50;;;;;;;;;;5052285;28;20100;-71
2023/05/29 07:11:30;;;;;;;19.42;4.43;;;;;;;;;;5034290;28;20040;-72
2023/05/29 07:13:56;;;;;;;19.70;4.32;;;;;;;;;;5034334;28;20045;-71
2023/05/29 07:16:22;;;;;;;23.75;4.97;;;;;;;;;;5052179;28;20048;-72
2023/05/29 07:18:48;;;;;;;18.70;3.92;;;;;;;;;;5033729;28;20053;-72
2023/05/29 07:21:14;;;;;;;17.23;3.70;;;;;;;;;;5014603;28;20053;-71
2023/05/29 07:23:40;;;;;;;14.32;3.95;;;;;;;;;;5029568;28;20049;-72
2023/05/29 07:26:07;;;;;;;18.77;4.63;;;;;;;;;;5014483;28;20133;-71
2023/05/29 07:28:33;;;;;;;16.15;4.20;;;;;;;;;;5032190;28;20081;-72
2023/05/29 07:30:59;;;;;;;22.05;5.28;;;;;;;;;;4998185;28;20127;-72
2023/05/29 07:33:25;;;;;;;20.77;3.97;;;;;;;;;;5031978;28;20100;-72
2023/05/29 07:35:51;;;;;;;21.98;3.78;;;;;;;;;;5041046;28;20421;-71
2023/05/29 07:38:17;;;;;;;20.15;3.97;;;;;;;;;;5048955;28;20063;-73
2023/05/29 07:40:43;;;;;;;19.33;4.18;;;;;;;;;;5050213;28;20049;-75
2023/05/29 07:43:09;;;;;;;18.63;3.88;;;;;;;;;;5032688;28;20047;-75
2023/05/29 07:45:35;;;;;;;17.15;3.60;;;;;;;;;;5033882;28;20496;-75
2023/05/29 07:48:01;;;;;;;18.05;4.07;;;;;;;;;;5051907;28;20051;-74
2023/05/29 07:50:27;;;;;;;23.17;4.25;;;;;;;;;;5051951;28;20045;-75
2023/05/29 07:52:55;;;;;;;20.17;4.50;;;;;;;;;;5034242;28;20116;-75
2023/05/29 07:55:21;;;;;;;14.90;3.90;;;;;;;;;;5052202;28;20498;-75
2023/05/29 07:57:48;;;;;;;21.58;4.55;;;;;;;;;;5051945;28;20128;-75
2023/05/29 08:00:14;;;;;;;19.08;3.90;;;;;;;;;;5051314;28;20053;-75
2023/05/29 08:02:42;;;;;;;19.30;4.13;;;;;;;;;;5051066;28;20493;-75
2023/05/29 08:05:08;;;;;;;14.30;3.70;;;;;;;;;;5033521;28;20049;-75
2023/05/29 08:07:35;;;;;;;17.35;3.80;;;;;;;;;;5065583;28;20056;-76
2023/05/29 08:10:01;;;;;;;23.45;4.10;;;;;;;;;;5017331;28;20053;-75
2023/05/29 08:12:27;;;;;;;21.73;4.10;;;;;;;;;;5051641;28;20041;-76
2023/05/29 08:14:53;;;;;;;20.48;4.13;;;;;;;;;;5037019;28;20049;-75
2023/05/29 08:17:19;;;;;;;17.90;4.10;;;;;;;;;;5054420;28;20397;-77
2023/05/29 08:19:45;;;;;;;17.70;4.07;;;;;;;;;;5054212;28;20079;-76
2023/05/29 08:22:13;;;;;;;17.00;4.20;;;;;;;;;;5054595;28;20044;-75
2023/05/29 08:24:39;;;;;;;18.25;4.10;;;;;;;;;;5034993;28;20528;-76
2023/05/29 08:27:05;;;;;;;24.05;3.88;;;;;;;;;;5017101;28;20049;-76
2023/05/29 08:29:31;;;;;;;16.48;4.05;;;;;;;;;;5050067;28;20091;-76
2023/05/29 08:31:57;;;;;;;15.63;3.47;;;;;;;;;;5049749;28;20429;-75
2023/05/29 08:34:23;;;;;;;18.50;4.15;;;;;;;;;;5034971;28;20045;-75
2023/05/29 08:36:51;;;;;;;20.10;3.95;;;;;;;;;;5034116;28;20088;-77
2023/05/29 08:39:17;;;;;;;19.48;4.20;;;;;;;;;;5034913;28;20048;-76
2023/05/29 08:41:55;;;;;;;16.13;4.38;;;;;;;;;;5051377;28;20053;-77
2023/05/29 08:44:22;;;;;;;18.40;4.05;;;;;;;;;;5050282;28;20120;-76
2023/05/29 08:46:55;;;;;;;17.88;3.72;;;;;;;;;;5054809;28;20049;-75
2023/05/29 08:49:22;;;;;;;18.55;4.22;;;;;;;;;;5053553;28;20033;-73
2023/05/29 08:51:50;;;;;;;20.80;4.35;;;;;;;;;;5054630;28;20128;-73
2023/05/29 08:54:16;;;;;;;21.55;3.72;;;;;;;;;;5054721;28;20124;-73
2023/05/29 08:56:43;;;;;;;19.33;4.15;;;;;;;;;;5054892;28;20051;-73
2023/05/29 08:59:09;;;;;;;14.60;3.88;;;;;;;;;;5054027;28;20063;-73
2023/05/29 09:01:36;;;;;;;19.25;4.43;;;;;;;;;;5036886;28;20099;-74
2023/05/29 09:04:02;;;;;;;18.80;3.83;;;;;;;;;;5054585;28;20164;-73
2023/05/29 09:06:28;;;;;;;19.65;3.80;;;;;;;;;;5036480;28;20057;-72
2023/05/29 09:08:55;;;;;;;19.30;3.67;;;;;;;;;;5054622;28;20045;-72
2023/05/29 09:11:22;;;;;;;18.85;3.95;;;;;;;;;;5036908;28;20048;-72
2023/05/29 09:13:48;;;;;;;15.52;4.22;;;;;;;;;;5035928;28;20391;-71
2023/05/29 09:16:16;;;;;;;20.30;4.13;;;;;;;;;;5053643;28;20076;-72
2023/05/29 09:18:45;;;;;;;16.10;4.03;;;;;;;;;;5052949;28;20394;-72
2023/05/29 09:21:11;;;;;;;16.35;3.53;;;;;;;;;;5053161;28;20045;-72
2023/05/29 09:23:37;;;;;;;14.68;3.85;;;;;;;;;;5053386;28;20075;-73
2023/05/29 09:26:03;;;;;;;16.85;3.67;;;;;;;;;;5035012;28;20474;-73
2023/05/29 09:28:33;;;;;;;17.42;4.85;;;;;;;;;;5052181;28;20048;-73
2023/05/29 09:31:00;;;;;;;21.85;3.70;;;;;;;;;;5035749;28;20037;-74
2023/05/29 09:33:26;;;;;;;20.98;4.22;;;;;;;;;;5054379;28;20041;-72
2023/05/29 09:35:52;;;;;;;16.98;3.65;;;;;;;;;;5067401;28;20045;-72
2023/05/29 09:38:20;;;;;;;13.43;3.95;;;;;;;;;;5053289;28;20120;-72
2023/05/29 09:40:46;;;;;;;11.80;3.78;;;;;;;;;;5034522;28;20080;-72
2023/05/29 09:43:13;;;;;;;13.48;3.45;;;;;;;;;;5053738;28;20048;-67
2023/05/29 09:45:40;;;;;;;15.65;3.97;;;;;;;;;;5053104;28;20071;-69
2023/05/29 09:48:13;;;;;;;17.55;4.45;;;;;;;;;;5034636;28;20410;-69
2023/05/29 09:50:43;;;;;;;15.68;4.30;;;;;;;;;;5035569;28;20090;-68
2023/05/29 09:53:19;;;;;;;19.80;4.00;;;;;;;;;;5015301;28;20085;-70
2023/05/29 09:55:47;;;;;;;17.90;3.92;;;;;;;;;;5067345;28;20043;-70
2023/05/29 09:58:14;;;;;;;13.35;3.90;;;;;;;;;;5052287;28;20493;-71
2023/05/29 10:00:42;;;;;;;16.30;4.38;;;;;;;;;;5053055;28;20131;-70
2023/05/29 10:03:08;;;;;;;12.68;3.60;;;;;;;;;;5052788;28;20506;-70
2023/05/29 10:05:34;;;;;;;19.15;4.28;;;;;;;;;;5053371;28;20053;-71
2023/05/29 10:08:02;;;;;;;18.45;4.00;;;;;;;;;;5067202;28;20053;-71
2023/05/29 10:10:28;;;;;;;19.05;4.10;;;;;;;;;;5052011;28;20041;-72
2023/05/29 10:12:55;;;;;;;18.10;4.20;;;;;;;;;;5033608;28;20040;-71
2023/05/29 10:15:23;;;;;;;14.60;3.60;;;;;;;;;;5050346;28;20119;-72
2023/05/29 10:18:04;;;;;;;16.25;3.85;;;;;;;;;;5041003;28;20045;-71
2023/05/29 10:20:31;;;;;;;14.32;3.85;;;;;;;;;;5031392;28;20060;-71
2023/05/29 10:23:00;;;;;;;19.92;3.95;;;;;;;;;;5049517;28;20260;-72
2023/05/29 10:25:27;;;;;;;18.17;4.00;;;;;;;;;;5051096;28;20048;-72
2023/05/29 10:27:54;;;;;;;14.30;3.50;;;;;;;;;;5048914;28;20355;-71
2023/05/29 10:30:35;;;;;;;15.77;3.60;;;;;;;;;;5046386;28;20406;-71
2023/05/29 10:33:19;;;;;;;17.05;3.60;;;;;;;;;;5047508;28;20383;-72
2023/05/29 10:35:51;;;;;;;12.27;3.67;;;;;;;;;;5032728;28;20444;-72
2023/05/29 10:38:19;;;;;;;15.70;4.13;;;;;;;;;;5031728;28;20449;-72
2023/05/29 10:40:45;;;;;;;16.25;3.17;;;;;;;;;;5032253;28;20184;-72
2023/05/29 10:43:30;;;;;;;14.75;3.47;;;;;;;;;;5032561;28;20053;-72
2023/05/29 10:45:56;;;;;;;;;;;;;;;;;;5033716;28;20049;-71
2023/05/29 10:48:28;;;;;;;;;;;;;;;;;;5032403;28;20266;-71
2023/05/29 10:50:54;;;;;;;14.75;3.42;;;;;;;;;;5032513;28;19921;-71
2023/05/29 10:53:24;;;;;;;16.52;3.53;;;;;;;;;;5032687;28;20402;-72
2023/05/29 10:55:51;;;;;;;18.60;3.55;;;;;;;;;;5032685;28;20045;-72
2023/05/29 10:58:22;;;;;;;14.75;3.75;;;;;;;;;;5054874;28;20088;-72
2023/05/29 11:00:49;;;;;;;16.35;3.53;;;;;;;;;;5029039;28;20059;-72
2023/05/29 11:03:15;;;;;;;13.73;3.70;;;;;;;;;;5052465;28;20043;-72
2023/05/29 11:06:01;;;;;;;13.98;3.13;;;;;;;;;;5051245;28;20057;-72
2023/05/29 11:08:35;;;;;;;10.82;3.30;;;;;;;;;;5052021;28;20060;-70
2023/05/29 11:11:01;;;;;;;13.63;3.72;;;;;;;;;;5034863;28;20041;-71
2023/05/29 11:13:31;;;;;;;12.07;3.50;;;;;;;;;;5052371;28;20047;-71
2023/05/29 11:16:11;;;;;;;11.98;3.45;;;;;;;;;;5034828;28;20410;-71
2023/05/29 11:18:45;;;;;;;15.07;3.60;;;;;;;;;;5051962;28;20052;-71
2023/05/29 11:21:24;;;;;;;15.30;3.42;;;;;;;;;;5052357;28;20049;-73
2023/05/29 11:23:54;;;;;;;11.35;3.33;;;;;;;;;;5052578;28;20367;-71
2023/05/29 11:26:20;;;;;;;15.65;3.25;;;;;;;;;;5067850;28;20056;-71
2023/05/29 11:28:46;;;;;;;10.73;2.88;;;;;;;;;;5050942;28;20543;-72
2023/05/29 11:31:13;;;;;;;12.00;3.35;;;;;;;;;;5050076;28;20045;-71
2023/05/29 11:33:41;;;;;;;11.15;3.15;;;;;;;;;;5034298;28;20049;-71
2023/05/29 11:36:09;;;;;;;12.45;3.58;;;;;;;;;;5067956;28;20067;-72
2023/05/29 11:38:35;;;;;;;14.55;3.53;;;;;;;;;;5067061;28;20478;-71
2023/05/29 11:41:03;;;;;;;10.82;3.20;;;;;;;;;;5051514;28;20049;-72
2023/05/29 11:43:29;;;;;;;14.80;3.63;;;;;;;;;;5052190;28;20448;-72
2023/05/29 11:45:55;;;;;;;13.65;3.20;;;;;;;;;;5067537;28;20116;-72
2023/05/29 11:48:23;;;;;;;12.98;3.30;;;;;;;;;;5035050;28;20394;-72
2023/05/29 11:50:49;;;;;;;12.77;3.20;;;;;;;;;;5053857;28;20048;-71
2023/05/29 11:53:16;;;;;;;11.18;3.35;;;;;;;;;;5052918;28;20045;-72
2023/05/29 11:55:42;;;;;;;14.00;3.40;;;;;;;;;;5053837;28;20079;-72
2023/05/29 11:58:08;;;;;;;12.73;3.38;;;;;;;;;;5054615;28;20049;-72
2023/05/29 12:00:35;;;;;;;17.10;3.33;;;;;;;;;;5056216;28;20048;-72
2023/05/29 12:03:05;;;;;;;10.10;3.33;;;;;;;;;;5038639;28;20117;-72
2023/05/29 12:05:44;;;;;;;15.63;3.33;;;;;;;;;;5056015;28;20060;-72
2023/05/29 12:08:10;;;;;;;12.63;3.45;;;;;;;;;;5055787;28;20452;-72
2023/05/29 12:10:37;;;;;;;15.82;3.38;;;;;;;;;;5037933;28;20536;-72
2023/05/29 12:13:03;;;;;;;10.73;2.97;;;;;;;;;;5070786;28;20067;-72
2023/05/29 12:15:29;;;;;;;15.80;3.50;;;;;;;;;;5054456;28;20040;-72
2023/05/29 12:17:56;;;;;;;13.68;3.22;;;;;;;;;;5053780;28;20363;-72
2023/05/29 12:20:26;;;;;;;13.55;3.40;;;;;;;;;;5053783;28;20056;-72
2023/05/29 12:22:52;;;;;;;12.00;3.13;;;;;;;;;;5068707;28;20472;-72
2023/05/29 12:25:21;;;;;;;11.60;2.97;;;;;;;;;;5037283;28;20053;-72
2023/05/29 12:27:48;;;;;;;12.45;3.17;;;;;;;;;;5037026;28;20053;-73
2023/05/29 12:30:16;;;;;;;13.88;3.33;;;;;;;;;;5054924;28;20485;-72
2023/05/29 12:32:44;;;;;;;13.95;3.30;;;;;;;;;;5053763;28;20048;-72
2023/05/29 12:35:20;;;;;;;16.98;3.35;;;;;;;;;;5055467;28;20041;-71
2023/05/29 12:37:56;;;;;;;12.40;2.88;;;;;;;;;;5037321;28;20107;-71
2023/05/29 12:40:24;;;;;;;13.45;3.22;;;;;;;;;;5054915;28;20533;-71
2023/05/29 12:42:54;;;;;;;12.73;3.03;;;;;;;;;;5054878;28;20044;-71
2023/05/29 12:45:22;;;;;;;17.75;3.42;;;;;;;;;;5070774;28;20132;-71
2023/05/29 12:48:04;;;;;;;11.63;3.10;;;;;;;;;;5053162;28;20049;-71
2023/05/29 12:50:34;;;;;;;12.20;2.95;;;;;;;;;;5054890;28;20063;-71
2023/05/29 12:53:02;;;;;;;12.88;2.95;;;;;;;;;;5054720;28;20114;-72
2023/05/29 12:55:28;;;;;;;12.50;2.97;;;;;;;;;;5054601;28;20044;-72
2023/05/29 12:57:55;;;;;;;11.15;3.13;;;;;;;;;;5054806;28;20086;-72
2023/05/29 13:00:22;;;;;;;13.77;3.30;;;;;;;;;;5036458;28;20567;-72
2023/05/29 13:02:48;;;;;;;13.40;3.15;;;;;;;;;;5036820;28;20053;-71
2023/05/29 13:05:15;;;;;;;10.82;3.08;;;;;;;;;;5036758;28;20048;-72
2023/05/29 13:07:42;;;;;;;13.68;3.72;;;;;;;;;;5054410;28;20569;-71
2023/05/29 13:10:08;;;;;;;14.98;3.63;;;;;;;;;;5054373;28;20048;-71
2023/05/29 13:12:35;;;;;;;14.05;2.97;;;;;;;;;;5036870;28;20052;-72
2023/05/29 13:15:01;;;;;;;11.25;3.00;;;;;;;;;;5054755;28;20383;-72
2023/05/29 13:17:27;;;;;;;14.65;3.35;;;;;;;;;;5054250;28;20405;-72
2023/05/29 13:19:53;;;;;;;14.02;3.22;;;;;;;;;;5054138;28;20049;-72
2023/05/29 13:22:19;;;;;;;8.98;2.55;;;;;;;;;;5036617;28;20059;-72
2023/05/29 13:24:46;;;;;;;12.25;3.03;;;;;;;;;;5036355;28;20132;-72
2023/05/29 13:27:15;;;;;;;13.25;3.70;;;;;;;;;;5053911;28;20564;-72
2023/05/29 13:29:41;;;;;;;9.95;3.00;;;;;;;;;;5036087;28;20102;-72
2023/05/29 13:32:07;;;;;;;12.93;3.10;;;;;;;;;;5069460;28;20045;-72
2023/05/29 13:34:33;;;;;;;14.80;2.80;;;;;;;;;;5068640;28;20520;-73
2023/05/29 13:37:01;;;;;;;13.65;2.95;;;;;;;;;;5053787;28;20045;-72
2023/05/29 13:39:28;;;;;;;10.65;3.03;;;;;;;;;;5053284;28;20106;-73
2023/05/29 13:41:54;;;;;;;10.50;3.10;;;;;;;;;;5035457;28;20045;-69
2023/05/29 13:44:20;;;;;;;11.52;3.00;;;;;;;;;;5053651;28;20383;-69
2023/05/29 13:46:46;;;;;;;14.43;3.28;;;;;;;;;;5052840;28;20080;-69
2023/05/29 13:49:12;;;;;;;12.18;3.00;;;;;;;;;;5052741;28;20079;-69
2023/05/29 13:51:38;;;;;;;14.40;3.10;;;;;;;;;;5052285;28;20056;-69
2023/05/29 13:54:04;;;;;;;11.73;3.30;;;;;;;;;;5036124;28;20387;-69
2023/05/29 13:56:30;;;;;;;16.38;3.20;;;;;;;;;;5035493;28;20040;-69
2023/05/29 13:59:03;;;;;;;10.77;2.70;;;;;;;;;;5053591;28;20044;-69
2023/05/29 14:01:30;;;;;;;10.98;2.90;;;;;;;;;;5053465;28;20139;-69
2023/05/29 14:03:56;;;;;;;11.88;2.97;;;;;;;;;;5052536;28;20045;-70
2023/05/29 14:06:22;;;;;;;13.82;2.90;;;;;;;;;;5052856;28;20094;-69
2023/05/29 14:08:48;;;;;;;10.70;2.58;;;;;;;;;;5053236;28;20045;-69
2023/05/29 14:11:14;;;;;;;11.32;2.85;;;;;;;;;;5055450;28;20391;-67
2023/05/29 14:13:40;;;;;;;9.98;2.50;;;;;;;;;;5033899;28;20037;-69
2023/05/29 14:16:06;;;;;;;10.93;2.70;;;;;;;;;;5035397;28;20459;-70
2023/05/29 14:18:32;;;;;;;10.65;3.10;;;;;;;;;;5018682;28;20063;-69
2023/05/29 14:20:58;;;;;;;9.38;2.72;;;;;;;;;;5052699;28;20052;-68
2023/05/29 14:23:25;;;;;;;10.63;3.22;;;;;;;;;;5068585;28;20091;-68
2023/05/29 14:25:51;;;;;;;10.15;2.78;;;;;;;;;;5035096;28;20416;-68
2023/05/29 14:28:17;;;;;;;12.13;2.85;;;;;;;;;;5033071;28;20037;-68
2023/05/29 14:30:43;;;;;;;10.77;2.80;;;;;;;;;;5052772;28;20501;-68